sensor_id;sensor_type;location;lat;lon;timestamp;P1;durP1;ratioP1;P2;durP2;ratioP2
15466;SDS011;7834;49.452;11.056;2023-09-18T00:00:46;9.70;;;7.10;;
15466;SDS011;7834;49.452;11.056;2023-09-18T00:03:15;7.90;;;7.10;;
15466;SDS011;7834;49.452;11.056;2023-09-18T00:05:41;8.00;;;7.20;;
15466;SDS011;7834;49.452;11.056;2023-09-18T00:08:06;8.20;;;7.40;;
15466;SDS011;7834;49.452;11.056;2023-09-18T00:10:32;7.90;;;7.20;;
15466;SDS011;7834;49.452;11.056;2023-09-18T00:12:58;8.23;;;6.93;;
15466;SDS011;7834;49.452;11.056;2023-09-18T00:15:23;7.45;;;6.75;;
15466;SDS011;7834;49.452;11.056;2023-09-18T00:17:49;7.40;;;6.67;;
15466;SDS011;7834;49.452;11.056;2023-09-18T00:20:14;8.13;;;7.43;;
15466;SDS011;7834;49.452;11.056;2023-09-18T00:22:42;9.35;;;8.35;;
15466;SDS011;7834;49.452;11.056;2023-09-18T00:25:08;9.05;;;7.50;;
15466;SDS011;7834;49.452;11.056;2023-09-18T00:27:33;8.37;;;7.57;;
15466;SDS011;7834;49.452;11.056;2023-09-18T00:30:01;8.10;;;7.30;;
15466;SDS011;7834;49.452;11.056;2023-09-18T00:32:27;8.10;;;7.40;;
15466;SDS011;7834;49.452;11.056;2023-09-18T00:34:53;9.05;;;7.50;;
15466;SDS011;7834;49.452;11.056;2023-09-18T00:37:19;8.20;;;7.50;;
15466;SDS011;7834;49.452;11.056;2023-09-18T00:39:44;8.13;;;7.33;;
15466;SDS011;7834;49.452;11.056;2023-09-18T00:42:10;8.13;;;7.33;;
15466;SDS011;7834;49.452;11.056;2023-09-18T00:44:39;8.18;;;7.38;;
15466;SDS011;7834;49.452;11.056;2023-09-18T00:47:10;7.87;;;7.10;;
15466;SDS011;7834;49.452;11.056;2023-09-18T00:49:36;8.10;;;7.40;;
15466;SDS011;7834;49.452;11.056;2023-09-18T00:52:06;8.55;;;7.68;;
15466;SDS011;7834;49.452;11.056;2023-09-18T00:54:32;8.18;;;7.47;;
15466;SDS011;7834;49.452;11.056;2023-09-18T00:56:58;8.07;;;7.30;;
15466;SDS011;7834;49.452;11.056;2023-09-18T00:59:24;7.50;;;6.80;;
15466;SDS011;7834;49.452;11.056;2023-09-18T01:01:50;8.05;;;7.35;;
15466;SDS011;7834;49.452;11.056;2023-09-18T01:04:16;8.27;;;7.47;;
15466;SDS011;7834;49.452;11.056;2023-09-18T01:06:42;7.88;;;7.05;;
15466;SDS011;7834;49.452;11.056;2023-09-18T01:09:08;8.50;;;7.70;;
15466;SDS011;7834;49.452;11.056;2023-09-18T01:14:35;8.18;;;7.30;;
15466;SDS011;7834;49.452;11.056;2023-09-18T01:17:02;8.75;;;7.80;;
15466;SDS011;7834;49.452;11.056;2023-09-18T01:19:42;7.90;;;7.20;;
15466;SDS011;7834;49.452;11.056;2023-09-18T01:22:12;8.95;;;7.40;;
15466;SDS011;7834;49.452;11.056;2023-09-18T01:24:38;7.82;;;6.97;;
15466;SDS011;7834;49.452;11.056;2023-09-18T01:27:04;8.07;;;7.28;;
15466;SDS011;7834;49.452;11.056;2023-09-18T01:29:30;7.40;;;6.70;;
15466;SDS011;7834;49.452;11.056;2023-09-18T01:31:55;8.27;;;7.47;;
15466;SDS011;7834;49.452;11.056;2023-09-18T01:34:21;7.97;;;7.27;;
15466;SDS011;7834;49.452;11.056;2023-09-18T01:36:49;7.40;;;6.80;;
15466;SDS011;7834;49.452;11.056;2023-09-18T01:39:15;8.23;;;7.05;;
15466;SDS011;7834;49.452;11.056;2023-09-18T01:41:42;7.85;;;7.03;;
15466;SDS011;7834;49.452;11.056;2023-09-18T01:44:08;7.88;;;7.18;;
15466;SDS011;7834;49.452;11.056;2023-09-18T01:46:33;7.67;;;6.83;;
15466;SDS011;7834;49.452;11.056;2023-09-18T01:49:05;7.80;;;7.05;;
15466;SDS011;7834;49.452;11.056;2023-09-18T01:51:33;7.75;;;6.72;;
15466;SDS011;7834;49.452;11.056;2023-09-18T01:53:59;7.77;;;7.10;;
15466;SDS011;7834;49.452;11.056;2023-09-18T01:56:25;7.72;;;6.93;;
15466;SDS011;7834;49.452;11.056;2023-09-18T01:58:51;7.90;;;7.13;;
15466;SDS011;7834;49.452;11.056;2023-09-18T02:01:16;7.50;;;6.90;;
15466;SDS011;7834;49.452;11.056;2023-09-18T02:03:42;8.27;;;7.40;;
15466;SDS011;7834;49.452;11.056;2023-09-18T02:06:08;7.67;;;6.87;;
15466;SDS011;7834;49.452;11.056;2023-09-18T02:08:36;7.45;;;6.85;;
15466;SDS011;7834;49.452;11.056;2023-09-18T02:11:02;7.53;;;6.85;;
15466;SDS011;7834;49.452;11.056;2023-09-18T02:13:30;7.53;;;6.83;;
15466;SDS011;7834;49.452;11.056;2023-09-18T02:15:56;8.23;;;6.72;;
15466;SDS011;7834;49.452;11.056;2023-09-18T02:18:22;7.57;;;6.83;;
15466;SDS011;7834;49.452;11.056;2023-09-18T02:20:47;7.68;;;6.80;;
15466;SDS011;7834;49.452;11.056;2023-09-18T02:23:17;7.38;;;6.65;;
15466;SDS011;7834;49.452;11.056;2023-09-18T02:25:44;7.05;;;6.35;;
15466;SDS011;7834;49.452;11.056;2023-09-18T02:28:09;7.35;;;6.65;;
15466;SDS011;7834;49.452;11.056;2023-09-18T02:30:36;7.53;;;6.90;;
15466;SDS011;7834;49.452;11.056;2023-09-18T02:33:05;7.68;;;6.93;;
15466;SDS011;7834;49.452;11.056;2023-09-18T02:35:30;7.67;;;6.87;;
15466;SDS011;7834;49.452;11.056;2023-09-18T02:37:56;7.28;;;6.60;;
15466;SDS011;7834;49.452;11.056;2023-09-18T02:40:22;8.68;;;6.20;;
15466;SDS011;7834;49.452;11.056;2023-09-18T02:42:47;7.00;;;6.40;;
15466;SDS011;7834;49.452;11.056;2023-09-18T02:45:13;7.57;;;6.30;;
15466;SDS011;7834;49.452;11.056;2023-09-18T02:47:38;7.03;;;6.33;;
15466;SDS011;7834;49.452;11.056;2023-09-18T02:50:06;6.45;;;5.85;;
15466;SDS011;7834;49.452;11.056;2023-09-18T02:52:32;6.53;;;5.97;;
15466;SDS011;7834;49.452;11.056;2023-09-18T02:54:58;6.47;;;5.87;;
15466;SDS011;7834;49.452;11.056;2023-09-18T02:57:24;7.13;;;6.40;;
15466;SDS011;7834;49.452;11.056;2023-09-18T02:59:49;6.67;;;6.00;;
15466;SDS011;7834;49.452;11.056;2023-09-18T03:02:15;7.10;;;6.40;;
15466;SDS011;7834;49.452;11.056;2023-09-18T03:04:40;6.83;;;6.17;;
15466;SDS011;7834;49.452;11.056;2023-09-18T03:07:06;7.43;;;6.72;;
15466;SDS011;7834;49.452;11.056;2023-09-18T03:09:34;6.70;;;6.13;;
15466;SDS011;7834;49.452;11.056;2023-09-18T03:12:01;7.07;;;6.40;;
15466;SDS011;7834;49.452;11.056;2023-09-18T03:14:26;7.40;;;6.80;;
15466;SDS011;7834;49.452;11.056;2023-09-18T03:16:52;7.30;;;6.50;;
15466;SDS011;7834;49.452;11.056;2023-09-18T03:19:18;6.80;;;6.10;;
15466;SDS011;7834;49.452;11.056;2023-09-18T03:21:45;7.40;;;6.70;;
15466;SDS011;7834;49.452;11.056;2023-09-18T03:24:14;7.60;;;6.80;;
15466;SDS011;7834;49.452;11.056;2023-09-18T03:26:40;6.85;;;6.25;;
15466;SDS011;7834;49.452;11.056;2023-09-18T03:29:05;7.13;;;6.47;;
15466;SDS011;7834;49.452;11.056;2023-09-18T03:31:31;8.83;;;6.43;;
15466;SDS011;7834;49.452;11.056;2023-09-18T03:33:57;7.88;;;7.07;;
15466;SDS011;7834;49.452;11.056;2023-09-18T03:36:22;7.43;;;6.67;;
15466;SDS011;7834;49.452;11.056;2023-09-18T03:38:51;7.70;;;6.90;;
15466;SDS011;7834;49.452;11.056;2023-09-18T03:41:18;8.00;;;7.10;;
15466;SDS011;7834;49.452;11.056;2023-09-18T03:43:44;8.93;;;7.47;;
15466;SDS011;7834;49.452;11.056;2023-09-18T03:46:09;7.68;;;6.93;;
15466;SDS011;7834;49.452;11.056;2023-09-18T03:48:42;7.50;;;6.80;;
15466;SDS011;7834;49.452;11.056;2023-09-18T03:51:08;8.43;;;7.10;;
15466;SDS011;7834;49.452;11.056;2023-09-18T03:53:35;8.65;;;6.88;;
15466;SDS011;7834;49.452;11.056;2023-09-18T03:56:01;8.43;;;6.93;;
15466;SDS011;7834;49.452;11.056;2023-09-18T03:58:26;8.37;;;6.80;;
15466;SDS011;7834;49.452;11.056;2023-09-18T04:00:52;7.93;;;7.13;;
15466;SDS011;7834;49.452;11.056;2023-09-18T04:03:18;7.50;;;6.80;;
15466;SDS011;7834;49.452;11.056;2023-09-18T04:05:43;7.50;;;6.80;;
15466;SDS011;7834;49.452;11.056;2023-09-18T04:08:09;7.68;;;6.97;;
15466;SDS011;7834;49.452;11.056;2023-09-18T04:10:35;8.15;;;6.88;;
15466;SDS011;7834;49.452;11.056;2023-09-18T04:13:00;7.37;;;6.67;;
15466;SDS011;7834;49.452;11.056;2023-09-18T04:15:26;7.80;;;7.03;;
15466;SDS011;7834;49.452;11.056;2023-09-18T04:17:53;7.72;;;6.90;;
15466;SDS011;7834;49.452;11.056;2023-09-18T04:20:18;7.70;;;7.00;;
15466;SDS011;7834;49.452;11.056;2023-09-18T04:22:45;7.57;;;6.60;;
15466;SDS011;7834;49.452;11.056;2023-09-18T04:25:11;7.47;;;6.70;;
15466;SDS011;7834;49.452;11.056;2023-09-18T04:27:36;8.27;;;7.47;;
15466;SDS011;7834;49.452;11.056;2023-09-18T04:30:02;7.93;;;7.20;;
15466;SDS011;7834;49.452;11.056;2023-09-18T04:32:28;8.73;;;7.35;;
15466;SDS011;7834;49.452;11.056;2023-09-18T04:34:54;8.40;;;7.45;;
15466;SDS011;7834;49.452;11.056;2023-09-18T04:37:20;8.50;;;7.70;;
15466;SDS011;7834;49.452;11.056;2023-09-18T04:39:46;8.30;;;7.50;;
15466;SDS011;7834;49.452;11.056;2023-09-18T04:42:12;8.10;;;7.30;;
15466;SDS011;7834;49.452;11.056;2023-09-18T04:44:37;10.05;;;7.63;;
15466;SDS011;7834;49.452;11.056;2023-09-18T04:47:03;8.55;;;7.28;;
15466;SDS011;7834;49.452;11.056;2023-09-18T04:49:29;7.82;;;7.03;;
15466;SDS011;7834;49.452;11.056;2023-09-18T04:51:55;8.02;;;7.13;;
15466;SDS011;7834;49.452;11.056;2023-09-18T04:54:21;8.20;;;7.40;;
15466;SDS011;7834;49.452;11.056;2023-09-18T04:56:47;8.15;;;7.10;;
15466;SDS011;7834;49.452;11.056;2023-09-18T04:59:13;9.80;;;7.47;;
15466;SDS011;7834;49.452;11.056;2023-09-18T05:01:41;8.45;;;7.63;;
15466;SDS011;7834;49.452;11.056;2023-09-18T05:04:06;8.20;;;7.40;;
15466;SDS011;7834;49.452;11.056;2023-09-18T05:06:32;7.83;;;7.07;;
15466;SDS011;7834;49.452;11.056;2023-09-18T05:08:57;7.97;;;7.17;;
15466;SDS011;7834;49.452;11.056;2023-09-18T05:11:23;10.00;;;7.90;;
15466;SDS011;7834;49.452;11.056;2023-09-18T05:13:48;8.32;;;7.35;;
15466;SDS011;7834;49.452;11.056;2023-09-18T05:16:14;8.07;;;7.30;;
15466;SDS011;7834;49.452;11.056;2023-09-18T05:18:40;8.03;;;7.27;;
15466;SDS011;7834;49.452;11.056;2023-09-18T05:21:06;9.02;;;7.80;;
15466;SDS011;7834;49.452;11.056;2023-09-18T05:23:32;8.93;;;8.03;;
15466;SDS011;7834;49.452;11.056;2023-09-18T05:25:57;11.82;;;9.18;;
15466;SDS011;7834;49.452;11.056;2023-09-18T05:28:23;9.27;;;8.37;;
15466;SDS011;7834;49.452;11.056;2023-09-18T05:30:48;9.73;;;7.93;;
15466;SDS011;7834;49.452;11.056;2023-09-18T05:33:14;9.90;;;8.10;;
15466;SDS011;7834;49.452;11.056;2023-09-18T05:35:40;9.57;;;7.80;;
15466;SDS011;7834;49.452;11.056;2023-09-18T05:38:06;10.25;;;7.50;;
15466;SDS011;7834;49.452;11.056;2023-09-18T05:40:32;10.57;;;7.83;;
15466;SDS011;7834;49.452;11.056;2023-09-18T05:42:57;9.03;;;8.13;;
15466;SDS011;7834;49.452;11.056;2023-09-18T05:45:23;10.02;;;8.13;;
15466;SDS011;7834;49.452;11.056;2023-09-18T05:47:49;8.87;;;7.87;;
15466;SDS011;7834;49.452;11.056;2023-09-18T05:50:15;8.43;;;7.53;;
15466;SDS011;7834;49.452;11.056;2023-09-18T05:52:42;8.20;;;7.30;;
15466;SDS011;7834;49.452;11.056;2023-09-18T05:55:07;10.55;;;7.82;;
15466;SDS011;7834;49.452;11.056;2023-09-18T05:57:33;11.73;;;8.35;;
15466;SDS011;7834;49.452;11.056;2023-09-18T05:59:59;8.45;;;7.55;;
15466;SDS011;7834;49.452;11.056;2023-09-18T06:02:25;13.70;;;8.48;;
15466;SDS011;7834;49.452;11.056;2023-09-18T06:04:57;10.30;;;8.17;;
15466;SDS011;7834;49.452;11.056;2023-09-18T06:07:24;9.07;;;7.90;;
15466;SDS011;7834;49.452;11.056;2023-09-18T06:09:49;10.20;;;8.02;;
15466;SDS011;7834;49.452;11.056;2023-09-18T06:12:15;9.50;;;7.97;;
15466;SDS011;7834;49.452;11.056;2023-09-18T06:14:41;11.73;;;8.15;;
15466;SDS011;7834;49.452;11.056;2023-09-18T06:17:06;10.00;;;7.47;;
15466;SDS011;7834;49.452;11.056;2023-09-18T06:19:32;10.53;;;7.57;;
15466;SDS011;7834;49.452;11.056;2023-09-18T06:22:01;10.10;;;7.47;;
15466;SDS011;7834;49.452;11.056;2023-09-18T06:24:27;9.10;;;7.23;;
15466;SDS011;7834;49.452;11.056;2023-09-18T06:26:53;9.80;;;7.72;;
15466;SDS011;7834;49.452;11.056;2023-09-18T06:29:18;10.20;;;7.73;;
15466;SDS011;7834;49.452;11.056;2023-09-18T06:31:44;11.48;;;7.50;;
15466;SDS011;7834;49.452;11.056;2023-09-18T06:34:10;10.53;;;7.87;;
15466;SDS011;7834;49.452;11.056;2023-09-18T06:36:35;12.20;;;7.37;;
15466;SDS011;7834;49.452;11.056;2023-09-18T06:39:01;10.03;;;7.37;;
15466;SDS011;7834;49.452;11.056;2023-09-18T06:41:27;8.67;;;7.37;;
15466;SDS011;7834;49.452;11.056;2023-09-18T06:43:53;10.18;;;7.50;;
15466;SDS011;7834;49.452;11.056;2023-09-18T06:46:18;10.38;;;7.68;;
15466;SDS011;7834;49.452;11.056;2023-09-18T06:48:44;9.00;;;8.10;;
15466;SDS011;7834;49.452;11.056;2023-09-18T06:51:14;11.18;;;7.72;;
15466;SDS011;7834;49.452;11.056;2023-09-18T06:53:40;9.40;;;7.70;;
15466;SDS011;7834;49.452;11.056;2023-09-18T06:56:05;8.73;;;7.57;;
15466;SDS011;7834;49.452;11.056;2023-09-18T06:58:31;10.33;;;7.87;;
15466;SDS011;7834;49.452;11.056;2023-09-18T07:00:56;8.37;;;7.47;;
15466;SDS011;7834;49.452;11.056;2023-09-18T07:03:23;8.27;;;7.47;;
15466;SDS011;7834;49.452;11.056;2023-09-18T07:05:48;8.30;;;7.40;;
15466;SDS011;7834;49.452;11.056;2023-09-18T07:08:14;9.63;;;7.38;;
15466;SDS011;7834;49.452;11.056;2023-09-18T07:10:45;10.10;;;7.45;;
15466;SDS011;7834;49.452;11.056;2023-09-18T07:13:10;10.07;;;7.60;;
15466;SDS011;7834;49.452;11.056;2023-09-18T07:15:37;8.93;;;7.20;;
15466;SDS011;7834;49.452;11.056;2023-09-18T07:18:02;9.97;;;7.43;;
15466;SDS011;7834;49.452;11.056;2023-09-18T07:20:28;8.07;;;7.28;;
15466;SDS011;7834;49.452;11.056;2023-09-18T07:22:56;7.53;;;6.80;;
15466;SDS011;7834;49.452;11.056;2023-09-18T07:25:22;9.40;;;6.50;;
15466;SDS011;7834;49.452;11.056;2023-09-18T07:27:47;9.68;;;6.97;;
15466;SDS011;7834;49.452;11.056;2023-09-18T07:30:13;8.10;;;6.53;;
15466;SDS011;7834;49.452;11.056;2023-09-18T07:32:42;7.68;;;6.65;;
15466;SDS011;7834;49.452;11.056;2023-09-18T07:35:08;7.43;;;6.53;;
15466;SDS011;7834;49.452;11.056;2023-09-18T07:37:34;10.38;;;7.35;;
15466;SDS011;7834;49.452;11.056;2023-09-18T07:40:01;9.52;;;7.00;;
15466;SDS011;7834;49.452;11.056;2023-09-18T07:42:27;8.98;;;6.60;;
15466;SDS011;7834;49.452;11.056;2023-09-18T07:44:53;8.60;;;6.55;;
15466;SDS011;7834;49.452;11.056;2023-09-18T07:47:18;10.30;;;6.22;;
15466;SDS011;7834;49.452;11.056;2023-09-18T07:49:44;7.43;;;6.63;;
15466;SDS011;7834;49.452;11.056;2023-09-18T07:52:10;6.67;;;5.97;;
15466;SDS011;7834;49.452;11.056;2023-09-18T07:54:35;10.90;;;7.32;;
15466;SDS011;7834;49.452;11.056;2023-09-18T07:57:01;12.50;;;7.10;;
15466;SDS011;7834;49.452;11.056;2023-09-18T07:59:26;10.98;;;7.22;;
15466;SDS011;7834;49.452;11.056;2023-09-18T08:01:52;11.05;;;7.45;;
15466;SDS011;7834;49.452;11.056;2023-09-18T08:04:19;11.27;;;6.95;;
15466;SDS011;7834;49.452;11.056;2023-09-18T08:06:45;12.10;;;6.60;;
15466;SDS011;7834;49.452;11.056;2023-09-18T08:09:11;7.15;;;6.22;;
15466;SDS011;7834;49.452;11.056;2023-09-18T08:11:40;8.70;;;6.00;;
15466;SDS011;7834;49.452;11.056;2023-09-18T08:14:07;9.55;;;6.10;;
15466;SDS011;7834;49.452;11.056;2023-09-18T08:16:33;7.30;;;5.70;;
15466;SDS011;7834;49.452;11.056;2023-09-18T08:19:00;10.90;;;6.33;;
15466;SDS011;7834;49.452;11.056;2023-09-18T08:21:26;11.63;;;6.40;;
15466;SDS011;7834;49.452;11.056;2023-09-18T08:23:54;12.63;;;6.30;;
15466;SDS011;7834;49.452;11.056;2023-09-18T08:26:20;10.88;;;6.53;;
15466;SDS011;7834;49.452;11.056;2023-09-18T08:28:46;11.00;;;6.18;;
15466;SDS011;7834;49.452;11.056;2023-09-18T08:31:11;11.25;;;6.35;;
15466;SDS011;7834;49.452;11.056;2023-09-18T08:33:37;12.38;;;6.15;;
15466;SDS011;7834;49.452;11.056;2023-09-18T08:36:02;10.98;;;5.82;;
15466;SDS011;7834;49.452;11.056;2023-09-18T08:38:28;8.98;;;5.47;;
15466;SDS011;7834;49.452;11.056;2023-09-18T08:40:54;8.83;;;5.43;;
15466;SDS011;7834;49.452;11.056;2023-09-18T08:43:20;10.40;;;5.93;;
15466;SDS011;7834;49.452;11.056;2023-09-18T08:45:49;10.73;;;5.03;;
15466;SDS011;7834;49.452;11.056;2023-09-18T08:48:16;9.65;;;4.93;;
15466;SDS011;7834;49.452;11.056;2023-09-18T08:50:42;9.23;;;5.03;;
15466;SDS011;7834;49.452;11.056;2023-09-18T08:53:08;7.60;;;4.90;;
15466;SDS011;7834;49.452;11.056;2023-09-18T08:55:34;10.50;;;4.90;;
15466;SDS011;7834;49.452;11.056;2023-09-18T08:58:00;12.77;;;4.65;;
15466;SDS011;7834;49.452;11.056;2023-09-18T09:00:26;8.48;;;4.35;;
15466;SDS011;7834;49.452;11.056;2023-09-18T09:02:51;8.82;;;4.60;;
15466;SDS011;7834;49.452;11.056;2023-09-18T09:05:20;9.25;;;4.57;;
15466;SDS011;7834;49.452;11.056;2023-09-18T09:07:46;13.43;;;5.43;;
15466;SDS011;7834;49.452;11.056;2023-09-18T09:10:11;11.65;;;6.10;;
15466;SDS011;7834;49.452;11.056;2023-09-18T09:15:11;10.90;;;4.50;;
15466;SDS011;7834;49.452;11.056;2023-09-18T09:17:37;10.20;;;5.05;;
15466;SDS011;7834;49.452;11.056;2023-09-18T09:20:09;7.72;;;4.85;;
15466;SDS011;7834;49.452;11.056;2023-09-18T09:22:37;8.68;;;4.30;;
15466;SDS011;7834;49.452;11.056;2023-09-18T09:25:02;9.27;;;4.60;;
15466;SDS011;7834;49.452;11.056;2023-09-18T09:27:28;10.40;;;4.50;;
15466;SDS011;7834;49.452;11.056;2023-09-18T09:30:00;9.57;;;4.20;;
15466;SDS011;7834;49.452;11.056;2023-09-18T09:32:26;8.20;;;3.80;;
15466;SDS011;7834;49.452;11.056;2023-09-18T09:34:56;12.43;;;3.90;;
15466;SDS011;7834;49.452;11.056;2023-09-18T09:37:29;9.35;;;4.10;;
15466;SDS011;7834;49.452;11.056;2023-09-18T09:39:55;10.82;;;4.20;;
15466;SDS011;7834;49.452;11.056;2023-09-18T09:42:21;11.25;;;4.38;;
15466;SDS011;7834;49.452;11.056;2023-09-18T09:45:03;8.65;;;4.75;;
15466;SDS011;7834;49.452;11.056;2023-09-18T09:47:33;7.30;;;3.72;;
15466;SDS011;7834;49.452;11.056;2023-09-18T09:49:59;10.05;;;3.58;;
15466;SDS011;7834;49.452;11.056;2023-09-18T09:52:32;8.77;;;3.43;;
15466;SDS011;7834;49.452;11.056;2023-09-18T09:54:58;8.20;;;3.30;;
15466;SDS011;7834;49.452;11.056;2023-09-18T09:57:24;7.57;;;3.80;;
15466;SDS011;7834;49.452;11.056;2023-09-18T09:59:49;13.03;;;3.90;;
15466;SDS011;7834;49.452;11.056;2023-09-18T10:02:15;11.27;;;3.37;;
15466;SDS011;7834;49.452;11.056;2023-09-18T10:04:45;8.33;;;3.57;;
15466;SDS011;7834;49.452;11.056;2023-09-18T10:07:14;7.70;;;3.50;;
15466;SDS011;7834;49.452;11.056;2023-09-18T10:09:41;8.15;;;3.92;;
15466;SDS011;7834;49.452;11.056;2023-09-18T10:12:10;9.60;;;3.80;;
15466;SDS011;7834;49.452;11.056;2023-09-18T10:14:36;12.00;;;4.30;;
15466;SDS011;7834;49.452;11.056;2023-09-18T10:17:12;7.82;;;3.53;;
15466;SDS011;7834;49.452;11.056;2023-09-18T10:19:42;8.70;;;3.50;;
15466;SDS011;7834;49.452;11.056;2023-09-18T10:22:30;11.55;;;3.72;;
15466;SDS011;7834;49.452;11.056;2023-09-18T10:25:00;7.93;;;3.15;;
15466;SDS011;7834;49.452;11.056;2023-09-18T10:27:28;6.22;;;3.05;;
15466;SDS011;7834;49.452;11.056;2023-09-18T10:29:54;6.60;;;2.80;;
15466;SDS011;7834;49.452;11.056;2023-09-18T10:32:20;6.40;;;3.10;;
15466;SDS011;7834;49.452;11.056;2023-09-18T10:34:47;6.37;;;2.70;;
15466;SDS011;7834;49.452;11.056;2023-09-18T10:37:14;8.13;;;2.95;;
15466;SDS011;7834;49.452;11.056;2023-09-18T10:39:41;7.13;;;2.95;;
15466;SDS011;7834;49.452;11.056;2023-09-18T10:42:07;7.03;;;2.85;;
15466;SDS011;7834;49.452;11.056;2023-09-18T10:44:33;8.57;;;3.10;;
15466;SDS011;7834;49.452;11.056;2023-09-18T10:47:00;6.90;;;3.10;;
15466;SDS011;7834;49.452;11.056;2023-09-18T10:49:25;9.95;;;3.42;;
15466;SDS011;7834;49.452;11.056;2023-09-18T10:51:54;11.30;;;3.40;;
15466;SDS011;7834;49.452;11.056;2023-09-18T10:54:21;7.18;;;3.10;;
15466;SDS011;7834;49.452;11.056;2023-09-18T10:56:47;9.70;;;4.40;;
15466;SDS011;7834;49.452;11.056;2023-09-18T10:59:13;9.30;;;2.95;;
15466;SDS011;7834;49.452;11.056;2023-09-18T11:01:39;9.20;;;3.00;;
15466;SDS011;7834;49.452;11.056;2023-09-18T11:04:05;6.63;;;2.80;;
15466;SDS011;7834;49.452;11.056;2023-09-18T11:09:19;6.72;;;2.58;;
15466;SDS011;7834;49.452;11.056;2023-09-18T11:11:45;8.57;;;2.60;;
15466;SDS011;7834;49.452;11.056;2023-09-18T11:14:14;6.30;;;2.58;;
15466;SDS011;7834;49.452;11.056;2023-09-18T11:16:40;5.15;;;2.30;;
15466;SDS011;7834;49.452;11.056;2023-09-18T11:19:10;6.07;;;2.30;;
15466;SDS011;7834;49.452;11.056;2023-09-18T11:21:36;5.53;;;2.45;;
15466;SDS011;7834;49.452;11.056;2023-09-18T11:24:02;6.33;;;2.40;;
15466;SDS011;7834;49.452;11.056;2023-09-18T11:26:32;7.10;;;2.13;;
15466;SDS011;7834;49.452;11.056;2023-09-18T11:28:59;6.28;;;2.25;;
15466;SDS011;7834;49.452;11.056;2023-09-18T11:31:59;6.82;;;2.10;;
15466;SDS011;7834;49.452;11.056;2023-09-18T11:36:47;3.77;;;1.70;;
15466;SDS011;7834;49.452;11.056;2023-09-18T11:39:13;5.07;;;1.83;;
15466;SDS011;7834;49.452;11.056;2023-09-18T11:41:57;3.72;;;1.92;;
15466;SDS011;7834;49.452;11.056;2023-09-18T11:44:31;17.70;;;11.50;;
15466;SDS011;7834;49.452;11.056;2023-09-18T11:46:58;4.25;;;1.90;;
15466;SDS011;7834;49.452;11.056;2023-09-18T11:49:25;5.70;;;1.80;;
15466;SDS011;7834;49.452;11.056;2023-09-18T11:51:51;5.97;;;1.87;;
15466;SDS011;7834;49.452;11.056;2023-09-18T11:54:17;7.32;;;1.90;;
15466;SDS011;7834;49.452;11.056;2023-09-18T11:56:43;3.70;;;1.80;;
15466;SDS011;7834;49.452;11.056;2023-09-18T11:59:09;6.00;;;1.92;;
15466;SDS011;7834;49.452;11.056;2023-09-18T12:01:35;3.67;;;1.70;;
15466;SDS011;7834;49.452;11.056;2023-09-18T12:04:02;5.90;;;2.25;;
15466;SDS011;7834;49.452;11.056;2023-09-18T12:06:33;8.85;;;2.40;;
15466;SDS011;7834;49.452;11.056;2023-09-18T12:08:59;4.90;;;2.10;;
15466;SDS011;7834;49.452;11.056;2023-09-18T12:11:25;7.22;;;2.10;;
15466;SDS011;7834;49.452;11.056;2023-09-18T12:13:51;8.53;;;2.10;;
15466;SDS011;7834;49.452;11.056;2023-09-18T12:16:16;8.40;;;2.40;;
15466;SDS011;7834;49.452;11.056;2023-09-18T12:18:46;7.10;;;2.15;;
15466;SDS011;7834;49.452;11.056;2023-09-18T12:21:13;4.60;;;2.05;;
15466;SDS011;7834;49.452;11.056;2023-09-18T12:23:39;4.72;;;2.22;;
15466;SDS011;7834;49.452;11.056;2023-09-18T12:26:05;6.60;;;2.20;;
15466;SDS011;7834;49.452;11.056;2023-09-18T12:28:34;7.05;;;2.40;;
15466;SDS011;7834;49.452;11.056;2023-09-18T12:31:00;5.68;;;2.20;;
15466;SDS011;7834;49.452;11.056;2023-09-18T12:33:33;4.40;;;1.80;;
15466;SDS011;7834;49.452;11.056;2023-09-18T12:35:59;4.40;;;2.10;;
15466;SDS011;7834;49.452;11.056;2023-09-18T12:38:24;4.80;;;2.40;;
15466;SDS011;7834;49.452;11.056;2023-09-18T12:40:52;5.10;;;2.10;;
15466;SDS011;7834;49.452;11.056;2023-09-18T12:43:18;4.90;;;2.47;;
15466;SDS011;7834;49.452;11.056;2023-09-18T12:45:43;5.07;;;1.98;;
15466;SDS011;7834;49.452;11.056;2023-09-18T12:48:11;5.15;;;2.45;;
15466;SDS011;7834;49.452;11.056;2023-09-18T12:50:37;4.55;;;2.00;;
15466;SDS011;7834;49.452;11.056;2023-09-18T12:53:45;4.27;;;2.10;;
15466;SDS011;7834;49.452;11.056;2023-09-18T12:55:51;6.47;;;2.20;;
15466;SDS011;7834;49.452;11.056;2023-09-18T12:58:19;4.95;;;2.47;;
15466;SDS011;7834;49.452;11.056;2023-09-18T13:00:48;6.50;;;2.20;;
15466;SDS011;7834;49.452;11.056;2023-09-18T13:03:15;6.70;;;2.15;;
15466;SDS011;7834;49.452;11.056;2023-09-18T13:05:40;6.43;;;2.23;;
15466;SDS011;7834;49.452;11.056;2023-09-18T13:08:06;5.87;;;2.37;;
15466;SDS011;7834;49.452;11.056;2023-09-18T13:10:44;5.18;;;2.22;;
15466;SDS011;7834;49.452;11.056;2023-09-18T13:13:17;6.15;;;2.28;;
15466;SDS011;7834;49.452;11.056;2023-09-18T13:15:42;4.47;;;2.25;;
15466;SDS011;7834;49.452;11.056;2023-09-18T13:18:11;5.35;;;2.33;;
15466;SDS011;7834;49.452;11.056;2023-09-18T13:20:37;4.50;;;2.50;;
15466;SDS011;7834;49.452;11.056;2023-09-18T13:23:03;5.80;;;2.30;;
15466;SDS011;7834;49.452;11.056;2023-09-18T13:25:35;4.75;;;2.10;;
15466;SDS011;7834;49.452;11.056;2023-09-18T13:28:04;4.45;;;1.75;;
15466;SDS011;7834;49.452;11.056;2023-09-18T13:30:30;3.55;;;1.60;;
15466;SDS011;7834;49.452;11.056;2023-09-18T13:33:03;2.75;;;1.80;;
15466;SDS011;7834;49.452;11.056;2023-09-18T13:35:29;3.75;;;1.80;;
15466;SDS011;7834;49.452;11.056;2023-09-18T13:37:55;3.80;;;1.80;;
15466;SDS011;7834;49.452;11.056;2023-09-18T13:40:20;4.15;;;1.95;;
15466;SDS011;7834;49.452;11.056;2023-09-18T13:42:47;6.30;;;1.90;;
15466;SDS011;7834;49.452;11.056;2023-09-18T13:45:14;3.40;;;1.95;;
15466;SDS011;7834;49.452;11.056;2023-09-18T13:47:41;4.07;;;2.07;;
15466;SDS011;7834;49.452;11.056;2023-09-18T13:50:07;3.28;;;1.80;;
15466;SDS011;7834;49.452;11.056;2023-09-18T13:52:34;3.45;;;1.85;;
15466;SDS011;7834;49.452;11.056;2023-09-18T13:55:00;5.40;;;1.80;;
15466;SDS011;7834;49.452;11.056;2023-09-18T13:57:25;4.13;;;1.88;;
15466;SDS011;7834;49.452;11.056;2023-09-18T13:59:51;3.93;;;1.97;;
15466;SDS011;7834;49.452;11.056;2023-09-18T14:02:17;2.67;;;2.10;;
15466;SDS011;7834;49.452;11.056;2023-09-18T14:04:43;4.13;;;2.00;;
15466;SDS011;7834;49.452;11.056;2023-09-18T14:07:10;4.15;;;1.98;;
15466;SDS011;7834;49.452;11.056;2023-09-18T14:09:36;4.00;;;2.03;;
15466;SDS011;7834;49.452;11.056;2023-09-18T14:12:02;3.80;;;1.90;;
15466;SDS011;7834;49.452;11.056;2023-09-18T14:14:28;3.00;;;1.70;;
15466;SDS011;7834;49.452;11.056;2023-09-18T14:16:54;3.42;;;1.73;;
15466;SDS011;7834;49.452;11.056;2023-09-18T14:19:35;2.45;;;1.70;;
15466;SDS011;7834;49.452;11.056;2023-09-18T14:22:00;5.93;;;1.90;;
15466;SDS011;7834;49.452;11.056;2023-09-18T14:24:30;4.60;;;1.98;;
15466;SDS011;7834;49.452;11.056;2023-09-18T14:26:56;5.75;;;1.90;;
15466;SDS011;7834;49.452;11.056;2023-09-18T14:29:21;4.03;;;2.00;;
15466;SDS011;7834;49.452;11.056;2023-09-18T14:31:47;3.92;;;1.80;;
15466;SDS011;7834;49.452;11.056;2023-09-18T14:34:13;3.97;;;1.83;;
15466;SDS011;7834;49.452;11.056;2023-09-18T14:36:39;2.22;;;1.70;;
15466;SDS011;7834;49.452;11.056;2023-09-18T14:39:05;3.83;;;1.80;;
15466;SDS011;7834;49.452;11.056;2023-09-18T14:41:34;4.27;;;2.00;;
15466;SDS011;7834;49.452;11.056;2023-09-18T14:44:00;4.88;;;1.95;;
15466;SDS011;7834;49.452;11.056;2023-09-18T14:46:25;4.75;;;2.20;;
15466;SDS011;7834;49.452;11.056;2023-09-18T14:48:51;3.57;;;2.30;;
15466;SDS011;7834;49.452;11.056;2023-09-18T14:51:16;3.80;;;1.90;;
15466;SDS011;7834;49.452;11.056;2023-09-18T14:53:43;4.30;;;2.03;;